Time;durP1;ratioP1;P1;durP2;ratioP2;P2;SDS_P1;SDS_P2;PMS_P1;PMS_P2;Temp;Humidity;BMP_temperature;BMP_pressure;BME280_temperature;BME280_humidity;BME280_pressure;Samples;Min_cycle;Max_cycle;Signal;HPM_P1;HPM_P2
2023/10/23 00:01:50;;;;;;;6.50;5.20;;;8.10;99.90;;;;;;4978349;28;90006;-33
2023/10/23 00:04:16;;;;;;;12.40;7.75;;;8.10;99.90;;;;;;4978309;28;88372;-33
2023/10/23 00:06:42;;;;;;;8.82;6.18;;;8.10;99.90;;;;;;4977908;28;88947;-34
2023/10/23 00:09:07;;;;;;;8.85;6.47;;;8.10;99.90;;;;;;4977899;28;90897;-32
2023/10/23 00:11:33;;;;;;;6.70;6.00;;;8.10;99.90;;;;;;4978058;28;89947;-36
2023/10/23 00:13:59;;;;;;;8.85;7.38;;;8.10;99.90;;;;;;4978981;28;90640;-31
2023/10/23 00:16:25;;;;;;;9.25;5.97;;;8.10;99.90;;;;;;4978219;28;90943;-34
2023/10/23 00:18:51;;;;;;;8.70;7.03;;;8.10;99.90;;;;;;4959186;28;90192;-33
2023/10/23 00:21:18;;;;;;;8.45;6.35;;;8.10;99.90;;;;;;4970855;28;90214;-32
2023/10/23 00:23:43;;;;;;;11.77;6.00;;;8.10;99.90;;;;;;4977532;28;89735;-33
2023/10/23 00:26:09;;;;;;;7.00;6.30;;;8.10;99.90;;;;;;4978886;28;89935;-31
2023/10/23 00:28:34;;;;;;;8.07;6.68;;;8.00;99.90;;;;;;4971522;28;89582;-33
2023/10/23 00:31:00;;;;;;;7.18;6.55;;;8.00;99.90;;;;;;4959474;28;89444;-34
2023/10/23 00:33:26;;;;;;;8.95;7.13;;;8.00;99.90;;;;;;4976821;28;89019;-32
2023/10/23 00:35:52;;;;;;;8.10;7.25;;;8.00;99.90;;;;;;4977943;28;90309;-32
2023/10/23 00:38:18;;;;;;;7.95;6.50;;;8.00;99.90;;;;;;4972036;28;90710;-32
2023/10/23 00:40:43;;;;;;;9.43;7.38;;;8.00;99.90;;;;;;4959094;28;91178;-33
2023/10/23 00:43:20;;;;;;;12.25;7.88;;;8.00;99.90;;;;;;4965887;28;89046;-33
2023/10/23 00:45:51;;;;;;;19.73;7.65;;;8.00;99.90;;;;;;4966769;28;89804;-34
2023/10/23 00:48:20;;;;;;;8.50;6.50;;;7.90;99.90;;;;;;4960681;28;89157;-32
2023/10/23 00:50:50;;;;;;;8.90;6.85;;;7.90;99.90;;;;;;4972666;28;89496;-37
2023/10/23 00:53:22;;;;;;;9.57;6.15;;;7.90;99.90;;;;;;4972339;28;89171;-31
2023/10/23 00:55:50;;;;;;;7.82;6.20;;;7.90;99.90;;;;;;4969796;28;90641;-34
2023/10/23 00:58:16;;;;;;;7.27;6.10;;;7.90;99.90;;;;;;4981286;28;89752;-32
2023/10/23 01:00:44;;;;;;;8.38;6.35;;;7.90;99.90;;;;;;4982167;28;90075;-33
2023/10/23 01:03:09;;;;;;;10.07;6.05;;;7.90;99.90;;;;;;4977987;28;89786;-32
2023/10/23 01:05:39;;;;;;;7.38;5.82;;;7.80;99.90;;;;;;4962399;28;89055;-33
2023/10/23 01:08:06;;;;;;;11.43;6.93;;;7.80;99.90;;;;;;4975484;28;89707;-31
2023/10/23 01:10:32;;;;;;;7.38;5.40;;;7.80;99.90;;;;;;4966177;28;90291;-34
2023/10/23 01:12:58;;;;;;;16.15;7.13;;;7.80;99.90;;;;;;4982227;28;89397;-30
2023/10/23 01:15:23;;;;;;;9.40;6.88;;;7.90;99.90;;;;;;4981850;28;90234;-33
2023/10/23 01:17:50;;;;;;;8.38;5.80;;;7.80;99.90;;;;;;4980305;28;89908;-31
2023/10/23 01:20:17;;;;;;;10.07;6.00;;;7.80;99.90;;;;;;4980715;28;89577;-33
2023/10/23 01:22:43;;;;;;;7.10;4.72;;;7.80;99.90;;;;;;4981547;28;88928;-32
2023/10/23 01:25:17;;;;;;;7.82;6.85;;;7.80;99.90;;;;;;4977975;28;91457;-32
2023/10/23 01:27:43;;;;;;;7.93;6.28;;;7.80;99.90;;;;;;4973145;28;90441;-33
2023/10/23 01:30:09;;;;;;;9.80;7.35;;;7.80;99.90;;;;;;4979999;28;90850;-33
2023/10/23 01:32:36;;;;;;;10.00;6.72;;;7.80;99.90;;;;;;4980894;28;88796;-32
2023/10/23 01:35:03;;;;;;;7.75;6.28;;;7.80;99.90;;;;;;4979831;28;90106;-31
2023/10/23 01:37:28;;;;;;;10.48;7.50;;;7.80;99.90;;;;;;4981176;28;91031;-31
2023/10/23 01:39:54;;;;;;;8.00;6.15;;;7.70;99.90;;;;;;4979578;28;89242;-33
2023/10/23 01:42:20;;;;;;;6.57;5.72;;;7.70;99.90;;;;;;4981177;28;89302;-30
2023/10/23 01:44:45;;;;;;;5.80;5.25;;;7.70;99.90;;;;;;4979409;28;90184;-32
2023/10/23 01:47:11;;;;;;;8.23;5.78;;;7.70;99.90;;;;;;4981210;28;89586;-32
2023/10/23 01:49:37;;;;;;;7.90;6.10;;;7.70;99.90;;;;;;4978668;28;89610;-32
2023/10/23 01:52:03;;;;;;;7.57;6.03;;;7.70;99.90;;;;;;4979331;28;90704;-36
2023/10/23 01:54:28;;;;;;;7.85;6.05;;;7.70;99.90;;;;;;4981513;28;91497;-33
2023/10/23 01:56:54;;;;;;;7.60;6.80;;;7.70;99.90;;;;;;4966516;28;89803;-34
2023/10/23 01:59:20;;;;;;;6.50;5.57;;;7.70;99.90;;;;;;4981330;28;89612;-33
2023/10/23 02:01:45;;;;;;;7.22;5.13;;;7.70;99.90;;;;;;4980393;28;89443;-33
2023/10/23 02:04:11;;;;;;;6.13;5.55;;;7.70;99.90;;;;;;4981588;28;89455;-32
2023/10/23 02:06:37;;;;;;;9.43;5.90;;;7.60;99.90;;;;;;4978934;28;90728;-32
2023/10/23 02:09:02;;;;;;;6.40;5.13;;;7.60;99.90;;;;;;4979865;28;89674;-33
2023/10/23 02:11:28;;;;;;;7.07;5.82;;;7.60;99.90;;;;;;4979852;28;89777;-33
2023/10/23 02:13:54;;;;;;;10.68;6.82;;;7.60;99.90;;;;;;4979981;28;89958;-31
2023/10/23 02:16:19;;;;;;;9.95;7.45;;;7.60;99.90;;;;;;4968785;28;90632;-33
2023/10/23 02:18:45;;;;;;;9.55;6.55;;;7.60;99.90;;;;;;4960601;28;88386;-31
2023/10/23 02:21:11;;;;;;;8.07;5.38;;;7.50;99.90;;;;;;4972647;28;87933;-33
2023/10/23 02:23:36;;;;;;;8.88;5.60;;;7.50;99.90;;;;;;4967352;28;90241;-32
2023/10/23 02:26:02;;;;;;;18.55;7.45;;;7.50;99.90;;;;;;4980899;28;89666;-35
2023/10/23 02:28:28;;;;;;;9.73;7.18;;;7.40;99.90;;;;;;4967839;28;90157;-31
2023/10/23 02:30:54;;;;;;;8.95;7.05;;;7.40;99.90;;;;;;4979917;28;88985;-34
2023/10/23 02:33:20;;;;;;;10.73;6.05;;;7.40;99.90;;;;;;4974814;28;89893;-33
2023/10/23 02:35:45;;;;;;;8.73;6.97;;;7.40;99.90;;;;;;4972679;28;89899;-31
2023/10/23 02:38:12;;;;;;;6.57;5.43;;;7.40;99.90;;;;;;4979176;28;89365;-33
2023/10/23 02:40:37;;;;;;;21.63;6.05;;;7.40;99.90;;;;;;4980018;28;90235;-31
2023/10/23 02:43:03;;;;;;;7.85;6.03;;;7.40;99.90;;;;;;4979597;28;90318;-31
2023/10/23 02:45:29;;;;;;;8.70;7.47;;;7.40;99.90;;;;;;4980694;28;90181;-34
2023/10/23 02:47:54;;;;;;;7.22;6.50;;;7.40;99.90;;;;;;4979220;28;90338;-33
2023/10/23 02:50:21;;;;;;;7.75;6.00;;;7.40;99.90;;;;;;4979928;28;88713;-32
2023/10/23 02:52:47;;;;;;;9.57;7.43;;;7.40;99.90;;;;;;4980020;28;90200;-32
2023/10/23 02:55:12;;;;;;;10.80;9.70;;;7.40;99.90;;;;;;4979385;28;89994;-33
2023/10/23 02:57:38;;;;;;;14.98;8.50;;;7.40;99.90;;;;;;4980235;28;89357;-31
2023/10/23 03:00:05;;;;;;;12.02;9.02;;;7.40;99.90;;;;;;4979908;28;88196;-34
2023/10/23 03:02:33;;;;;;;9.20;8.23;;;7.40;99.90;;;;;;4979565;28;89862;-32
2023/10/23 03:04:58;;;;;;;9.93;7.53;;;7.40;99.90;;;;;;4979258;28;90736;-32
2023/10/23 03:07:24;;;;;;;11.68;8.13;;;7.40;99.90;;;;;;4980372;28;90208;-32
2023/10/23 03:09:50;;;;;;;8.05;7.25;;;7.40;99.90;;;;;;4978378;28;89427;-34
2023/10/23 03:12:15;;;;;;;9.93;7.18;;;7.40;99.90;;;;;;4980362;28;90089;-32
2023/10/23 03:14:42;;;;;;;11.93;7.85;;;7.40;99.90;;;;;;4979574;28;89665;-32
2023/10/23 03:17:07;;;;;;;12.95;8.65;;;7.40;99.90;;;;;;4979318;28;89580;-33
2023/10/23 03:19:33;;;;;;;13.13;8.60;;;7.40;99.90;;;;;;4978758;28;88717;-34
2023/10/23 03:21:58;;;;;;;8.13;7.25;;;7.40;99.90;;;;;;4979689;28;90309;-30
2023/10/23 03:24:24;;;;;;;10.07;7.63;;;7.40;99.90;;;;;;4979850;28;90356;-32
2023/10/23 03:26:50;;;;;;;11.95;9.32;;;7.30;99.90;;;;;;4966452;28;90259;-31
2023/10/23 03:29:16;;;;;;;9.70;8.35;;;7.40;99.90;;;;;;4973072;28;90302;-32
2023/10/23 03:31:41;;;;;;;11.52;8.20;;;7.40;99.90;;;;;;4960680;28;89633;-32
2023/10/23 03:34:07;;;;;;;12.15;8.02;;;7.30;99.90;;;;;;4962022;28;89680;-32
2023/10/23 03:36:33;;;;;;;11.68;7.35;;;7.30;99.90;;;;;;4961523;28;90298;-35
2023/10/23 03:38:59;;;;;;;11.27;9.63;;;7.40;99.90;;;;;;4967247;28;89092;-33
2023/10/23 03:41:25;;;;;;;12.30;9.27;;;7.30;99.90;;;;;;4967204;28;90157;-33
2023/10/23 03:43:51;;;;;;;11.32;7.35;;;7.30;99.90;;;;;;4960610;28;90019;-34
2023/10/23 03:46:17;;;;;;;12.05;8.48;;;7.30;99.90;;;;;;4961641;28;89449;-34
2023/10/23 03:48:42;;;;;;;9.98;9.00;;;7.30;99.90;;;;;;4961458;28;89331;-30
2023/10/23 03:51:08;;;;;;;9.40;7.63;;;7.30;99.90;;;;;;4959575;28;90424;-32
2023/10/23 03:53:34;;;;;;;8.95;7.78;;;7.30;99.90;;;;;;4978224;28;90981;-33
2023/10/23 03:55:59;;;;;;;10.20;9.07;;;7.30;99.90;;;;;;4978010;28;90156;-34
2023/10/23 03:58:25;;;;;;;10.02;7.88;;;7.30;99.90;;;;;;4961853;28;88251;-33
2023/10/23 04:00:52;;;;;;;10.82;7.90;;;7.30;99.90;;;;;;4970285;28;91217;-33
2023/10/23 04:03:18;;;;;;;13.70;9.00;;;7.30;99.90;;;;;;4973193;28;90258;-31
2023/10/23 04:05:43;;;;;;;11.43;9.43;;;7.30;99.90;;;;;;4959733;28;89699;-33
2023/10/23 04:08:09;;;;;;;11.52;8.90;;;7.20;99.90;;;;;;4964128;28;89668;-32
2023/10/23 04:10:35;;;;;;;9.38;7.40;;;7.20;99.90;;;;;;4978914;28;90320;-32
2023/10/23 04:13:01;;;;;;;8.18;6.90;;;7.20;99.90;;;;;;4978331;28;88213;-33
2023/10/23 04:15:27;;;;;;;9.38;8.02;;;7.20;99.90;;;;;;4978149;28;88322;-31
2023/10/23 04:17:53;;;;;;;11.82;7.78;;;7.20;99.90;;;;;;4978771;28;89587;-31
2023/10/23 04:20:19;;;;;;;9.32;7.40;;;7.20;99.90;;;;;;4978432;28;89947;-31
2023/10/23 04:22:44;;;;;;;10.15;8.60;;;7.20;99.90;;;;;;4978571;28;90330;-34
2023/10/23 04:25:10;;;;;;;10.75;8.05;;;7.20;99.90;;;;;;4978500;28;88314;-33
2023/10/23 04:27:36;;;;;;;8.73;6.47;;;7.20;99.90;;;;;;4978314;28;89405;-34
2023/10/23 04:30:04;;;;;;;14.98;7.80;;;7.20;99.90;;;;;;4978223;28;89036;-32
2023/10/23 04:32:30;;;;;;;10.77;7.53;;;7.20;99.90;;;;;;4967381;28;89860;-32
2023/10/23 04:34:55;;;;;;;12.93;7.25;;;7.20;99.90;;;;;;4976237;28;89705;-33
2023/10/23 04:37:21;;;;;;;8.18;6.85;;;7.20;99.90;;;;;;4973893;28;89568;-33
2023/10/23 04:39:47;;;;;;;11.48;8.27;;;7.20;99.90;;;;;;4977870;28;90130;-33
2023/10/23 04:42:12;;;;;;;11.05;8.25;;;7.20;99.90;;;;;;4978280;28;90743;-30
2023/10/23 04:44:38;;;;;;;12.20;8.75;;;7.20;99.90;;;;;;4978356;28;90050;-31
2023/10/23 04:47:04;;;;;;;10.02;8.25;;;7.20;99.90;;;;;;4967261;28;88745;-32
2023/10/23 04:49:29;;;;;;;10.30;7.95;;;7.20;99.90;;;;;;4966074;28;90239;-30
2023/10/23 04:51:55;;;;;;;10.50;7.15;;;7.10;99.90;;;;;;4959336;28;90066;-31
2023/10/23 04:54:20;;;;;;;9.63;7.18;;;7.10;99.90;;;;;;4978947;28;89377;-33
2023/10/23 04:56:46;;;;;;;10.82;7.82;;;7.10;99.90;;;;;;4978057;28;89602;-33
2023/10/23 04:59:12;;;;;;;10.88;7.93;;;7.10;99.90;;;;;;4960577;28;90330;-32
2023/10/23 05:01:38;;;;;;;11.80;8.45;;;7.10;99.90;;;;;;4954892;28;89909;-31
2023/10/23 05:04:04;;;;;;;10.30;8.57;;;7.10;99.90;;;;;;4977208;28;89742;-35
2023/10/23 05:06:29;;;;;;;24.20;8.25;;;7.10;99.90;;;;;;4978618;28;92329;-32
2023/10/23 05:08:55;;;;;;;10.23;9.02;;;7.10;99.90;;;;;;4977665;28;89380;-32
2023/10/23 05:11:21;;;;;;;17.00;9.27;;;7.10;99.90;;;;;;4971343;28;89389;-33
2023/10/23 05:13:47;;;;;;;10.65;8.20;;;7.10;99.90;;;;;;4966205;28;89472;-32
2023/10/23 05:16:12;;;;;;;10.75;7.88;;;7.10;99.90;;;;;;4962439;28;89570;-34
2023/10/23 05:18:39;;;;;;;14.52;9.05;;;7.10;99.90;;;;;;4975207;28;89916;-30
2023/10/23 05:21:09;;;;;;;11.27;9.88;;;7.10;99.90;;;;;;4969647;28;90477;-32
2023/10/23 05:23:35;;;;;;;11.93;9.73;;;7.10;99.90;;;;;;4960044;28;90922;-31
2023/10/23 05:26:01;;;;;;;10.93;8.27;;;7.10;99.90;;;;;;4978549;28;88593;-31
2023/10/23 05:28:27;;;;;;;11.27;9.68;;;7.10;99.90;;;;;;4963251;28;91200;-33
2023/10/23 05:30:52;;;;;;;12.88;8.70;;;7.10;99.90;;;;;;4959938;28;90770;-33
2023/10/23 05:33:19;;;;;;;10.88;8.52;;;7.10;99.90;;;;;;4972446;28;90483;-32
2023/10/23 05:35:45;;;;;;;10.23;7.22;;;7.00;99.90;;;;;;4977752;28;89453;-33
2023/10/23 05:38:11;;;;;;;8.80;7.22;;;7.10;99.90;;;;;;4977682;28;89246;-33
2023/10/23 05:40:37;;;;;;;10.77;7.93;;;7.10;99.90;;;;;;4977622;28;89479;-31
2023/10/23 05:43:03;;;;;;;7.95;7.10;;;7.10;99.90;;;;;;4981587;28;89519;-32
2023/10/23 05:45:28;;;;;;;11.10;8.45;;;7.10;99.90;;;;;;4965466;28;89565;-34
2023/10/23 05:47:54;;;;;;;11.40;7.38;;;7.10;99.90;;;;;;4974712;28;90247;-31
2023/10/23 05:50:19;;;;;;;8.15;6.07;;;7.10;99.90;;;;;;4998607;22;89344;-33
2023/10/23 05:52:45;;;;;;;13.15;8.27;;;7.10;99.90;;;;;;4998868;28;89547;-32
2023/10/23 05:55:10;;;;;;;12.88;8.95;;;7.10;99.90;;;;;;4990942;28;90612;-35
2023/10/23 05:57:36;;;;;;;12.65;9.38;;;7.00;99.90;;;;;;4983367;28;89834;-33
2023/10/23 06:00:03;;;;;;;9.45;7.13;;;7.00;99.90;;;;;;4993794;28;89638;-32
2023/10/23 06:02:32;;;;;;;12.25;8.18;;;7.00;99.90;;;;;;4996004;28;89111;-31
2023/10/23 06:04:58;;;;;;;12.25;10.10;;;7.00;99.90;;;;;;4980677;28;88188;-34
2023/10/23 06:07:24;;;;;;;11.98;9.00;;;7.10;99.90;;;;;;4996245;28;89536;-31
2023/10/23 06:09:49;;;;;;;11.45;8.77;;;7.00;99.90;;;;;;4995873;28;89412;-34
2023/10/23 06:12:15;;;;;;;10.52;7.88;;;7.00;99.90;;;;;;4998616;28;89025;-32
2023/10/23 06:14:41;;;;;;;10.20;7.38;;;7.10;99.90;;;;;;4987665;28;89582;-32
2023/10/23 06:17:06;;;;;;;9.65;7.80;;;7.10;99.90;;;;;;4991700;28;91820;-31
2023/10/23 06:19:32;;;;;;;9.52;7.32;;;7.10;99.90;;;;;;4978290;28;90621;-32
2023/10/23 06:21:59;;;;;;;10.65;8.80;;;7.00;99.90;;;;;;4991352;28;90513;-33
2023/10/23 06:24:25;;;;;;;14.85;9.55;;;7.10;99.90;;;;;;4990972;28;89810;-34
2023/10/23 06:26:51;;;;;;;10.43;8.57;;;7.10;99.90;;;;;;4979752;28;90198;-32
2023/10/23 06:29:16;;;;;;;12.02;8.45;;;7.10;99.90;;;;;;4979433;28;89483;-33
2023/10/23 06:31:42;;;;;;;13.35;7.60;;;7.10;99.90;;;;;;4978004;28;89729;-32
2023/10/23 06:34:07;;;;;;;16.92;8.55;;;7.10;99.90;;;;;;4990911;28;89756;-32
2023/10/23 06:36:33;;;;;;;11.85;8.02;;;7.10;99.90;;;;;;4980780;28;90362;-33
2023/10/23 06:38:59;;;;;;;9.13;7.63;;;7.10;99.90;;;;;;4978050;28;89726;-34
2023/10/23 06:41:25;;;;;;;11.82;6.93;;;7.10;99.90;;;;;;4992905;28;90178;-33
2023/10/23 06:43:50;;;;;;;10.50;8.27;;;7.10;99.90;;;;;;4979042;28;89982;-33
2023/10/23 06:46:16;;;;;;;9.68;7.25;;;7.10;99.90;;;;;;4985689;28;90206;-31
2023/10/23 06:48:44;;;;;;;10.23;8.80;;;7.10;99.90;;;;;;4997523;28;89958;-33
2023/10/23 06:51:10;;;;;;;;;;;7.10;99.90;;;;;;4991659;28;90369;-33
2023/10/23 06:53:36;;;;;;;10.85;7.47;;;7.10;99.90;;;;;;4980504;28;89591;-32
2023/10/23 06:56:02;;;;;;;14.05;10.25;;;7.00;99.90;;;;;;4982885;28;90100;-32
2023/10/23 06:58:28;;;;;;;12.88;6.63;;;7.00;99.90;;;;;;4997500;28;89068;-33
2023/10/23 07:00:53;;;;;;;73.35;12.80;;;6.90;99.90;;;;;;4987603;28;89162;-33
2023/10/23 07:03:19;;;;;;;12.55;9.52;;;6.80;99.90;;;;;;4995946;28;89858;-31
2023/10/23 07:05:45;;;;;;;9.20;7.22;;;6.80;99.90;;;;;;4997015;28;90244;-33
2023/10/23 07:08:11;;;;;;;7.88;6.50;;;6.80;99.90;;;;;;4996564;28;92319;-32
2023/10/23 07:10:38;;;;;;;9.45;7.93;;;6.70;99.90;;;;;;4996790;28;91432;-31
2023/10/23 07:13:04;;;;;;;10.25;6.82;;;6.70;99.90;;;;;;4997723;28;88718;-34
2023/10/23 07:15:34;;;;;;;15.00;7.22;;;6.70;99.90;;;;;;4996484;28;89828;-33
2023/10/23 07:18:00;;;;;;;10.93;8.20;;;6.70;99.90;;;;;;4983487;28;88455;-32
2023/10/23 07:20:25;;;;;;;12.27;7.55;;;6.70;99.90;;;;;;4978747;28;89444;-32
2023/10/23 07:22:51;;;;;;;9.50;7.20;;;6.70;99.90;;;;;;4994422;28;89248;-31
2023/10/23 07:25:16;;;;;;;20.45;9.95;;;6.70;99.90;;;;;;4979542;28;88987;-31
2023/10/23 07:27:42;;;;;;;9.82;8.10;;;6.80;99.90;;;;;;4997162;28;90148;-34
2023/10/23 07:30:09;;;;;;;13.02;9.27;;;6.80;99.90;;;;;;4996616;28;90643;-34
2023/10/23 07:32:35;;;;;;;9.27;6.85;;;6.80;99.90;;;;;;4996705;28;90026;-34
2023/10/23 07:35:03;;;;;;;11.65;8.77;;;6.80;99.90;;;;;;4978374;28;90458;-32
2023/10/23 07:37:29;;;;;;;16.50;9.50;;;6.90;99.90;;;;;;4997426;28;90063;-32
2023/10/23 07:39:57;;;;;;;65.47;13.40;;;7.00;99.90;;;;;;4995669;28;89231;-32
2023/10/23 07:42:22;;;;;;;11.13;8.32;;;7.00;99.90;;;;;;4997086;28;89832;-34
2023/10/23 07:44:48;;;;;;;102.72;17.08;;;7.10;99.90;;;;;;4997284;28;90272;-33
2023/10/23 07:47:13;;;;;;;47.92;10.10;;;7.10;99.90;;;;;;4996715;28;89584;-35
2023/10/23 07:49:40;;;;;;;8.13;6.80;;;7.20;99.90;;;;;;4992698;28;88233;-32
2023/10/23 07:52:06;;;;;;;246.57;27.77;;;7.20;99.90;;;;;;4995413;28;89127;-31
2023/10/23 07:54:31;;;;;;;83.38;12.35;;;7.20;99.90;;;;;;4994948;28;89511;-34
2023/10/23 07:56:57;;;;;;;8.52;7.10;;;7.30;99.90;;;;;;4990375;28;89623;-33
2023/10/23 07:59:23;;;;;;;56.88;10.13;;;7.50;99.90;;;;;;4992700;28;89974;-34
2023/10/23 08:01:50;;;;;;;42.85;9.02;;;7.60;99.90;;;;;;4996083;28;89723;-32
2023/10/23 08:04:16;;;;;;;25.85;9.07;;;7.60;99.90;;;;;;5003886;28;90393;-32
2023/10/23 08:06:42;;;;;;;36.58;7.75;;;7.60;99.90;;;;;;4996601;28;89238;-30
2023/10/23 08:09:07;;;;;;;9.50;8.13;;;7.50;99.90;;;;;;4996788;28;89384;-32
2023/10/23 08:11:33;;;;;;;21.98;8.75;;;7.40;99.90;;;;;;4995782;28;89627;-34
2023/10/23 08:14:00;;;;;;;8.80;7.25;;;7.40;99.90;;;;;;4997262;28;91383;-31
2023/10/23 08:16:25;;;;;;;9.40;6.75;;;7.40;99.90;;;;;;4996084;28;90137;-32
2023/10/23 08:18:51;;;;;;;9.10;7.38;;;7.50;99.90;;;;;;4996544;28;88549;-31
2023/10/23 08:21:17;;;;;;;9.90;7.65;;;7.50;99.90;;;;;;4996699;28;88910;-29
2023/10/23 08:23:44;;;;;;;18.05;8.77;;;7.60;99.90;;;;;;4995810;28;89677;-33
2023/10/23 08:26:10;;;;;;;22.67;7.90;;;7.60;99.90;;;;;;4997382;28;90193;-32
2023/10/23 08:28:36;;;;;;;10.70;9.27;;;7.70;99.90;;;;;;4991833;28;89759;-33
2023/10/23 08:31:01;;;;;;;168.63;22.90;;;7.70;99.90;;;;;;4982728;28;89321;-31
2023/10/23 08:33:27;;;;;;;23.25;10.40;;;7.80;99.90;;;;;;4983558;28;90319;-33
2023/10/23 08:35:53;;;;;;;12.80;9.20;;;7.80;99.90;;;;;;4994373;28;90254;-31
2023/10/23 08:38:18;;;;;;;28.00;11.98;;;7.90;99.90;;;;;;4996446;28;89882;-32
2023/10/23 08:40:44;;;;;;;16.25;10.88;;;8.00;99.90;;;;;;4994736;28;88967;-34
2023/10/23 08:43:10;;;;;;;196.95;29.42;;;8.10;99.90;;;;;;4995660;28;89343;-32
2023/10/23 08:45:38;;;;;;;162.13;26.42;;;8.10;99.90;;;;;;4994984;28;91065;-32
2023/10/23 08:48:03;;;;;;;62.72;11.88;;;8.10;99.90;;;;;;4994924;28;90518;-33
2023/10/23 08:50:30;;;;;;;279.23;35.20;;;8.20;99.90;;;;;;4980979;28;87920;-31
2023/10/23 08:53:04;;;;;;;83.93;17.27;;;8.20;99.90;;;;;;4976330;28;90282;-34
2023/10/23 08:55:30;;;;;;;77.97;13.82;;;8.20;99.90;;;;;;4988233;28;90025;-31
2023/10/23 08:57:58;;;;;;;200.65;27.42;;;8.30;99.90;;;;;;4996542;28;89808;-32
2023/10/23 09:00:24;;;;;;;59.17;13.68;;;8.30;99.90;;;;;;4985018;28;89446;-32
2023/10/23 09:02:51;;;;;;;67.93;15.95;;;8.40;99.90;;;;;;4993663;28;89630;-31
2023/10/23 09:05:17;;;;;;;56.03;11.27;;;8.40;99.90;;;;;;4995649;28;88376;-34
2023/10/23 09:07:43;;;;;;;52.25;14.68;;;8.40;99.90;;;;;;4994202;28;89984;-31
2023/10/23 09:10:09;;;;;;;75.43;11.55;;;8.50;99.90;;;;;;4994690;28;88617;-32
2023/10/23 09:12:36;;;;;;;85.47;16.27;;;8.50;99.90;;;;;;4994491;28;89935;-33
2023/10/23 09:15:24;;;;;;;101.85;15.00;;;8.50;99.90;;;;;;4995784;28;90264;-31
2023/10/23 09:17:51;;;;;;;108.80;16.88;;;8.60;99.90;;;;;;4997352;28;89789;-30
2023/10/23 09:20:16;;;;;;;48.15;11.25;;;8.70;99.90;;;;;;4998296;28;88898;-32
2023/10/23 09:22:48;;;;;;;161.40;23.42;;;8.70;99.90;;;;;;4979547;28;90156;-32
2023/10/23 09:25:21;;;;;;;58.50;12.40;;;8.80;99.90;;;;;;4979057;28;89924;-35
2023/10/23 09:27:47;;;;;;;37.58;12.23;;;8.90;99.90;;;;;;4985410;28;89209;-32
2023/10/23 09:30:15;;;;;;;21.58;8.48;;;8.90;99.90;;;;;;4998423;28;90741;-31
2023/10/23 09:32:40;;;;;;;17.73;10.20;;;9.00;99.90;;;;;;4999405;28;90888;-32
2023/10/23 09:35:08;;;;;;;208.32;22.17;;;9.10;99.90;;;;;;4996493;28;90886;-31
2023/10/23 09:37:35;;;;;;;97.45;13.95;;;9.20;99.90;;;;;;4998380;28;90085;-33
2023/10/23 09:40:08;;;;;;;86.28;15.70;;;9.20;99.90;;;;;;4998632;28;89129;-31
2023/10/23 09:42:34;;;;;;;43.65;12.10;;;9.30;99.90;;;;;;4998003;28;90065;-33
2023/10/23 09:45:01;;;;;;;93.60;15.18;;;9.30;99.90;;;;;;4998236;28;89518;-33
2023/10/23 09:47:28;;;;;;;107.45;15.93;;;9.30;99.90;;;;;;4998734;28;89895;-33
2023/10/23 09:49:54;;;;;;;110.30;15.98;;;9.30;99.90;;;;;;4997063;28;88190;-35
2023/10/23 09:52:24;;;;;;;95.70;15.07;;;9.30;99.90;;;;;;4998302;28;90348;-34
2023/10/23 09:54:50;;;;;;;21.85;9.48;;;9.30;99.90;;;;;;4997793;28;89758;-34
2023/10/23 09:57:19;;;;;;;60.15;10.52;;;9.30;99.90;;;;;;4998617;28;89692;-32
2023/10/23 09:59:48;;;;;;;;;;;9.30;99.90;;;;;;4997427;28;90667;-32
2023/10/23 10:02:17;;;;;;;10.45;6.22;;;9.40;99.90;;;;;;4978251;28;88979;-33
2023/10/23 10:05:02;;;;;;;10.18;8.20;;;9.40;99.90;;;;;;4991353;28;90077;-32
2023/10/23 10:07:38;;;;;;;13.55;8.50;;;9.40;99.90;;;;;;4979302;28;89381;-31
2023/10/23 10:10:05;;;;;;;13.68;7.40;;;9.50;99.90;;;;;;4996095;28;89044;-33
2023/10/23 10:12:34;;;;;;;28.80;11.55;;;9.50;99.90;;;;;;4988151;28;89699;-31
2023/10/23 10:15:01;;;;;;;16.20;10.13;;;9.50;99.90;;;;;;4982425;28;89826;-33
2023/10/23 10:17:28;;;;;;;16.85;8.15;;;9.60;99.90;;;;;;4998387;28;89304;-33
2023/10/23 10:19:56;;;;;;;12.85;7.68;;;9.60;99.90;;;;;;4998072;28;88456;-31
2023/10/23 10:22:28;;;;;;;11.77;8.80;;;9.60;99.90;;;;;;4998448;28;89807;-32
2023/10/23 10:24:54;;;;;;;20.48;10.18;;;9.60;99.90;;;;;;4997487;28;90320;-32
2023/10/23 10:27:20;;;;;;;15.32;11.07;;;9.60;99.90;;;;;;4998171;28;91854;-33
2023/10/23 10:29:46;;;;;;;15.25;8.55;;;9.60;99.90;;;;;;4996988;28;89511;-34
2023/10/23 10:32:12;;;;;;;18.17;10.05;;;9.70;99.90;;;;;;4997647;28;90064;-34
2023/10/23 10:34:52;;;;;;;12.68;7.45;;;9.70;99.90;;;;;;4996548;28;89314;-32
2023/10/23 10:37:22;;;;;;;17.08;9.75;;;9.70;99.90;;;;;;4996716;28;89577;-34
2023/10/23 10:39:50;;;;;;;15.25;8.90;;;9.70;99.90;;;;;;4997478;28;89168;-33
2023/10/23 10:42:22;;;;;;;13.20;10.32;;;9.70;99.90;;;;;;4996874;28;90252;-32
2023/10/23 10:45:18;;;;;;;12.90;8.32;;;9.70;99.90;;;;;;4997016;28;89251;-31
2023/10/23 10:47:48;;;;;;;15.57;9.27;;;9.80;99.90;;;;;;4991997;28;90614;-31
2023/10/23 10:50:30;;;;;;;18.05;10.13;;;9.80;99.90;;;;;;4994365;28;89042;-34
2023/10/23 10:53:03;;;;;;;15.40;11.27;;;9.90;99.90;;;;;;4995154;28;90347;-31
2023/10/23 10:55:30;;;;;;;46.65;12.02;;;10.00;99.90;;;;;;4994613;28;89305;-33
2023/10/23 10:57:57;;;;;;;19.02;10.07;;;10.00;99.90;;;;;;4997267;28;89241;-30
2023/10/23 11:00:25;;;;;;;41.08;16.92;;;10.00;99.90;;;;;;4997577;28;90111;-31
2023/10/23 11:02:51;;;;;;;19.70;14.13;;;10.00;99.90;;;;;;4993247;28;90323;-29
2023/10/23 11:05:17;;;;;;;21.52;11.55;;;10.00;99.90;;;;;;4986263;28;89752;-33
2023/10/23 11:07:47;;;;;;;19.48;12.07;;;10.00;99.90;;;;;;4980463;28;89502;-30
2023/10/23 11:10:13;;;;;;;21.05;12.77;;;10.10;99.90;;;;;;4995762;28;89611;-30
2023/10/23 11:12:39;;;;;;;24.33;13.27;;;10.10;99.90;;;;;;4966977;28;89972;-31
2023/10/23 11:15:05;;;;;;;21.02;13.50;;;10.10;99.90;;;;;;4977814;28;91225;-33
2023/10/23 11:17:31;;;;;;;22.40;15.40;;;10.20;99.90;;;;;;4978906;28;90209;-32
2023/10/23 11:19:58;;;;;;;20.60;14.30;;;10.20;99.90;;;;;;4978698;28;90668;-31
2023/10/23 11:22:25;;;;;;;18.87;13.90;;;10.30;99.90;;;;;;4978489;28;90569;-32
2023/10/23 11:24:51;;;;;;;26.35;17.13;;;10.40;99.90;;;;;;4983402;28;89964;-31
2023/10/23 11:27:17;;;;;;;24.17;14.52;;;10.40;99.90;;;;;;4996907;28;88499;-31
2023/10/23 11:29:44;;;;;;;25.52;14.20;;;10.40;99.90;;;;;;4995623;28;88953;-32
2023/10/23 11:32:14;;;;;;;20.27;13.85;;;10.40;99.90;;;;;;4966710;28;89900;-33
2023/10/23 11:34:40;;;;;;;23.00;15.80;;;10.50;99.90;;;;;;4983813;28;90167;-32
2023/10/23 11:37:07;;;;;;;22.38;14.57;;;10.50;99.90;;;;;;4996549;28;89542;-31
2023/10/23 11:39:35;;;;;;;26.17;15.38;;;10.50;99.90;;;;;;4974096;28;89344;-31
2023/10/23 11:42:02;;;;;;;22.88;15.20;;;10.60;99.90;;;;;;4977693;28;91056;-32
2023/10/23 11:44:30;;;;;;;25.88;16.85;;;10.50;99.90;;;;;;4991655;28;88881;-32
2023/10/23 11:46:57;;;;;;;26.60;17.37;;;10.60;99.90;;;;;;4985737;28;90104;-33
2023/10/23 11:49:23;;;;;;;19.88;14.50;;;10.70;99.90;;;;;;4996001;28;89314;-34
2023/10/23 11:51:53;;;;;;;24.23;14.93;;;10.70;99.90;;;;;;4989775;28;92904;-32
2023/10/23 11:54:19;;;;;;;21.00;14.88;;;10.70;99.90;;;;;;4990959;28;89250;-31
2023/10/23 11:56:46;;;;;;;26.73;18.70;;;10.70;99.90;;;;;;4990586;28;90494;-31
2023/10/23 11:59:19;;;;;;;28.50;18.40;;;10.80;99.90;;;;;;4996123;28;89061;-31
2023/10/23 12:01:45;;;;;;;26.42;17.90;;;10.90;99.90;;;;;;4977629;28;90346;-31
2023/10/23 12:04:12;;;;;;;34.70;20.67;;;11.00;99.90;;;;;;4993431;27;90710;-34
2023/10/23 12:06:38;;;;;;;37.80;23.23;;;11.00;99.90;;;;;;4984014;28;89016;-30
2023/10/23 12:09:05;;;;;;;33.60;18.77;;;11.00;99.90;;;;;;4990180;28;88964;-31
2023/10/23 12:11:31;;;;;;;30.92;20.30;;;10.90;99.90;;;;;;4969629;28;90184;-33
2023/10/23 12:13:59;;;;;;;33.90;20.00;;;11.00;99.90;;;;;;4994625;28;91140;-34
2023/10/23 12:16:26;;;;;;;27.20;17.30;;;11.00;99.90;;;;;;4994922;28;89266;-32
2023/10/23 12:18:51;;;;;;;30.15;17.30;;;11.00;99.90;;;;;;4995542;28;89343;-33
2023/10/23 12:21:18;;;;;;;33.47;23.77;;;11.10;99.90;;;;;;4994495;28;90228;-31
2023/10/23 12:23:44;;;;;;;38.13;22.77;;;11.10;99.90;;;;;;4995214;28;89137;-32
2023/10/23 12:26:11;;;;;;;53.17;27.60;;;11.10;99.90;;;;;;4994308;28;89629;-32
2023/10/23 12:28:37;;;;;;;46.33;26.77;;;11.20;99.90;;;;;;4995135;28;90492;-33
2023/10/23 12:31:04;;;;;;;55.42;26.80;;;11.30;99.90;;;;;;4994030;28;90379;-31
2023/10/23 12:33:30;;;;;;;56.90;27.98;;;11.40;99.90;;;;;;4994529;28;90209;-30
2023/10/23 12:35:56;;;;;;;54.40;30.88;;;11.40;99.90;;;;;;4993672;28;89786;-32
2023/10/23 12:38:22;;;;;;;49.45;27.98;;;11.40;99.90;;;;;;4995360;28;88897;-33
2023/10/23 12:40:49;;;;;;;42.85;26.05;;;11.40;99.90;;;;;;4995345;28;90205;-32
2023/10/23 12:43:14;;;;;;;45.10;27.40;;;11.30;99.90;;;;;;4993753;28;90725;-33